Time,TemperatureF,DewpointF,PressureIn,WindDirection,WindDirectionDegrees,WindSpeedMPH,WindSpeedGustMPH,Humidity,HourlyPrecipIn,Conditions,Clouds,dailyrainin,SoftwareType,DateUTC
2013-02-03 00:01:00,11.8,1.3,30.02,North,0,1.0,2.0,62,0.00,,,-99.99,WeatherLink 5.7,2013-02-03 05:01:00,
2013-02-03 00:11:00,10.9,0.4,30.02,North,0,1.0,3.0,62,0.00,,,-99.99,WeatherLink 5.7,2013-02-03 05:11:00,
2013-02-03 00:21:00,10.0,-0.1,30.02,North,0,2.0,5.0,63,0.00,,,-99.99,WeatherLink 5.7,2013-02-03 05:21:00,
2013-02-03 00:31:00,9.1,-1.0,30.01,North,0,1.0,3.0,63,0.00,,,-99.99,WeatherLink 5.7,2013-02-03 05:31:00,
2013-02-03 00:41:00,8.3,-1.7,30.01,North,0,1.0,3.0,63,0.00,,,-99.99,WeatherLink 5.7,2013-02-03 05:41:00,
2013-02-03 00:51:00,7.6,-2.1,30.01,North,0,0.0,2.0,64,0.00,,,-99.99,WeatherLink 5.7,2013-02-03 05:51:00,
2013-02-03 01:01:00,7.0,-2.6,30.01,North,0,1.0,3.0,64,0.00,,,-99.99,WeatherLink 5.7,2013-02-03 06:01:00,
2013-02-03 01:11:00,6.1,-3.2,30.01,North,0,2.0,3.0,65,0.00,,,-99.99,WeatherLink 5.7,2013-02-03 06:11:00,
2013-02-03 01:21:00,5.6,-3.3,30.00,North,0,0.0,2.0,66,0.00,,,-99.99,WeatherLink 5.7,2013-02-03 06:21:00,
2013-02-03 01:31:00,5.3,-3.3,30.00,North,0,0.0,2.0,67,0.00,,,-99.99,WeatherLink 5.7,2013-02-03 06:31:00,
2013-02-03 01:41:00,5.1,-3.2,30.00,North,0,1.0,2.0,68,0.00,,,-99.99,WeatherLink 5.7,2013-02-03 06:41:00,
2013-02-03 01:51:00,4.9,-3.4,30.00,North,0,1.0,2.0,68,0.00,,,-99.99,WeatherLink 5.7,2013-02-03 06:51:00,
2013-02-03 02:00:00,4.8,-3.1,30.00,North,0,1.0,2.0,69,0.00,,,-99.99,WeatherLink 5.7,2013-02-03 07:00:00,
2013-02-03 02:11:00,4.9,-3.1,30.00,North,0,0.0,2.0,69,0.00,,,-99.99,WeatherLink 5.7,2013-02-03 07:11:00,
2013-02-03 02:21:00,5.0,-2.7,30.00,North,0,1.0,3.0,70,0.00,,,-99.99,WeatherLink 5.7,2013-02-03 07:21:00,
2013-02-03 02:31:00,4.9,-2.7,29.99,North,0,1.0,2.0,70,0.00,,,-99.99,WeatherLink 5.7,2013-02-03 07:31:00,
2013-02-03 02:41:00,4.7,-2.9,29.99,North,0,1.0,3.0,70,0.00,,,-99.99,WeatherLink 5.7,2013-02-03 07:41:00,
2013-02-03 02:51:00,4.5,-3.1,29.99,North,0,1.0,3.0,70,0.00,,,-99.99,WeatherLink 5.7,2013-02-03 07:51:00,
2013-02-03 03:01:00,4.2,-3.7,29.99,North,0,1.0,2.0,69,0.00,,,-99.99,WeatherLink 5.7,2013-02-03 08:01:00,
2013-02-03 03:11:00,3.9,-3.7,29.98,North,0,1.0,2.0,70,0.00,,,-99.99,WeatherLink 5.7,2013-02-03 08:11:00,
2013-02-03 03:21:00,4.0,-3.3,29.98,North,0,1.0,2.0,71,0.00,,,-99.99,WeatherLink 5.7,2013-02-03 08:21:00,
2013-02-03 03:31:00,4.3,-3.0,29.98,North,0,1.0,2.0,71,0.00,,,-99.99,WeatherLink 5.7,2013-02-03 08:31:00,
2013-02-03 03:41:00,4.5,-2.8,29.97,North,0,1.0,2.0,71,0.00,,,-99.99,WeatherLink 5.7,2013-02-03 08:41:00,
2013-02-03 03:51:00,4.7,-2.3,29.97,North,0,1.0,3.0,72,0.00,,,-99.99,WeatherLink 5.7,2013-02-03 08:51:00,
2013-02-03 04:01:00,4.9,-2.2,29.96,North,0,1.0,2.0,72,0.00,,,-99.99,WeatherLink 5.7,2013-02-03 09:01:00,
2013-02-03 04:11:00,5.2,-1.9,29.95,North,0,1.0,2.0,72,0.00,,,-99.99,WeatherLink 5.7,2013-02-03 09:11:00,
2013-02-03 04:21:00,5.3,-1.5,29.95,North,0,0.0,1.0,73,0.00,,,-99.99,WeatherLink 5.7,2013-02-03 09:21:00,
2013-02-03 04:31:00,5.1,-2.0,29.95,North,0,0.0,2.0,72,0.00,,,-99.99,WeatherLink 5.7,2013-02-03 09:31:00,
2013-02-03 04:41:00,4.8,-2.3,29.96,North,0,2.0,3.0,72,0.00,,,-99.99,WeatherLink 5.7,2013-02-03 09:41:00,
2013-02-03 04:51:00,4.3,-3.0,29.95,North,0,1.0,3.0,71,0.00,,,-99.99,WeatherLink 5.7,2013-02-03 09:51:00,
2013-02-03 05:01:00,3.7,-3.6,29.95,North,0,0.0,1.0,71,0.00,,,-99.99,WeatherLink 5.7,2013-02-03 10:01:00,
2013-02-03 05:11:00,3.2,-4.1,29.95,North,0,0.0,1.0,71,0.00,,,-99.99,WeatherLink 5.7,2013-02-03 10:11:00,
2013-02-03 05:21:00,2.7,-4.6,29.95,North,0,0.0,2.0,71,0.00,,,-99.99,WeatherLink 5.7,2013-02-03 10:21:00,
2013-02-03 05:31:00,2.1,-5.4,29.95,North,0,1.0,2.0,70,0.00,,,-99.99,WeatherLink 5.7,2013-02-03 10:31:00,
2013-02-03 05:41:00,1.6,-5.9,29.95,North,0,0.0,2.0,70,0.00,,,-99.99,WeatherLink 5.7,2013-02-03 10:41:00,
2013-02-03 05:51:00,1.0,-6.8,29.95,North,0,1.0,2.0,69,0.00,,,-99.99,WeatherLink 5.7,2013-02-03 10:51:00,
2013-02-03 06:01:00,0.6,-6.9,29.95,North,0,1.0,3.0,70,0.00,,,-99.99,WeatherLink 5.7,2013-02-03 11:01:00,
2013-02-03 06:11:00,0.4,-7.1,29.95,North,0,1.0,3.0,70,0.00,,,-99.99,WeatherLink 5.7,2013-02-03 11:11:00,
2013-02-03 06:21:00,0.6,-6.9,29.95,NW,315,1.0,3.0,70,0.00,,,-99.99,WeatherLink 5.7,2013-02-03 11:21:00,
2013-02-03 06:31:00,1.4,-5.5,29.95,NW,315,1.0,3.0,72,0.00,,,-99.99,WeatherLink 5.7,2013-02-03 11:31:00,
2013-02-03 06:41:00,2.5,-4.2,29.94,NW,315,1.0,4.0,73,0.00,,,-99.99,WeatherLink 5.7,2013-02-03 11:41:00,
2013-02-03 06:51:00,3.4,-3.0,29.94,NW,315,0.0,2.0,74,0.00,,,-99.99,WeatherLink 5.7,2013-02-03 11:51:00,
2013-02-03 07:00:00,4.2,-2.3,29.94,NW,315,0.0,2.0,74,0.00,,,-99.99,WeatherLink 5.7,2013-02-03 12:00:00,
2013-02-03 07:11:00,5.2,-1.0,29.94,NW,315,0.0,2.0,75,0.00,,,-99.99,WeatherLink 5.7,2013-02-03 12:11:00,
2013-02-03 07:21:00,6.0,-0.2,29.93,NW,315,0.0,3.0,75,0.00,,,-99.99,WeatherLink 5.7,2013-02-03 12:21:00,
2013-02-03 07:31:00,6.5,0.3,29.94,NW,315,0.0,2.0,75,0.00,,,-99.99,WeatherLink 5.7,2013-02-03 12:31:00,
2013-02-03 07:41:00,6.9,0.9,29.94,NW,315,1.0,3.0,76,0.00,,,-99.99,WeatherLink 5.7,2013-02-03 12:41:00,
2013-02-03 07:51:00,7.2,1.2,29.94,NW,315,1.0,3.0,76,0.00,,,-99.99,WeatherLink 5.7,2013-02-03 12:51:00,
2013-02-03 08:02:00,7.4,1.1,29.95,NW,315,1.0,3.0,75,0.00,,,-99.99,WeatherLink 5.7,2013-02-03 13:02:00,
2013-02-03 08:11:00,7.6,1.3,29.94,NW,315,1.0,4.0,75,0.00,,,-99.99,WeatherLink 5.7,2013-02-03 13:11:00,
2013-02-03 08:21:00,7.8,1.8,29.94,NW,315,0.0,2.0,76,0.00,,,-99.99,WeatherLink 5.7,2013-02-03 13:21:00,
2013-02-03 08:31:00,7.9,1.6,29.94,NW,315,1.0,3.0,75,0.00,,,-99.99,WeatherLink 5.7,2013-02-03 13:31:00,
2013-02-03 08:41:00,8.2,1.9,29.93,NW,315,0.0,2.0,75,0.00,,,-99.99,WeatherLink 5.7,2013-02-03 13:41:00,
2013-02-03 08:51:00,8.6,2.3,29.94,NW,315,0.0,2.0,75,0.00,,,-99.99,WeatherLink 5.7,2013-02-03 13:51:00,
2013-02-03 09:01:00,9.1,2.8,29.94,NW,315,1.0,3.0,75,0.00,,,-99.99,WeatherLink 5.7,2013-02-03 14:01:00,
2013-02-03 09:11:00,9.8,3.5,29.94,NW,315,1.0,4.0,75,0.00,,,-99.99,WeatherLink 5.7,2013-02-03 14:11:00,
2013-02-03 09:21:00,10.6,4.2,29.94,NW,315,1.0,3.0,75,0.00,,,-99.99,WeatherLink 5.7,2013-02-03 14:21:00,
2013-02-03 09:31:00,11.1,4.4,29.94,NW,315,0.0,2.0,74,0.00,,,-99.99,WeatherLink 5.7,2013-02-03 14:31:00,
2013-02-03 09:41:00,11.8,5.1,29.94,NW,315,1.0,4.0,74,0.00,,,-99.99,WeatherLink 5.7,2013-02-03 14:41:00,
2013-02-03 09:51:00,12.9,5.9,29.94,WNW,292,3.0,5.0,73,0.00,,,-99.99,WeatherLink 5.7,2013-02-03 14:51:00,
2013-02-03 10:01:00,13.5,5.8,29.94,WNW,292,3.0,5.0,71,0.00,,,-99.99,WeatherLink 5.7,2013-02-03 15:01:00,
2013-02-03 10:11:00,14.1,6.1,29.94,West,270,4.0,7.0,70,0.00,,,-99.99,WeatherLink 5.7,2013-02-03 15:11:00,
2013-02-03 10:21:00,14.4,5.4,29.94,West,270,5.0,8.0,67,0.00,,,-99.99,WeatherLink 5.7,2013-02-03 15:21:00,
2013-02-03 10:31:00,14.7,5.7,29.93,West,270,3.0,6.0,67,0.00,,,-99.99,WeatherLink 5.7,2013-02-03 15:31:00,
2013-02-03 10:41:00,15.5,6.5,29.93,West,270,3.0,6.0,67,0.00,,,-99.99,WeatherLink 5.7,2013-02-03 15:41:00,
2013-02-03 10:51:00,16.7,7.0,29.93,WSW,247,4.0,7.0,65,0.00,,,-99.99,WeatherLink 5.7,2013-02-03 15:51:00,
2013-02-03 11:01:00,17.3,6.8,29.93,WSW,247,5.0,9.0,63,0.00,,,-99.99,WeatherLink 5.7,2013-02-03 16:01:00,
2013-02-03 11:11:00,17.5,7.4,29.93,WSW,247,5.0,9.0,64,0.00,,,-99.99,WeatherLink 5.7,2013-02-03 16:11:00,
2013-02-03 11:21:00,17.9,7.8,29.93,West,270,5.0,10.0,64,0.00,,,-99.99,WeatherLink 5.7,2013-02-03 16:21:00,
2013-02-03 11:31:00,18.0,7.9,29.92,West,270,5.0,12.0,64,0.00,,,-99.99,WeatherLink 5.7,2013-02-03 16:31:00,
2013-02-03 11:41:00,18.2,8.1,29.92,West,270,7.0,12.0,64,0.00,,,-99.99,WeatherLink 5.7,2013-02-03 16:41:00,
2013-02-03 11:51:00,18.2,8.1,29.92,West,270,6.0,11.0,64,0.00,,,-99.99,WeatherLink 5.7,2013-02-03 16:51:00,
2013-02-03 12:01:00,18.5,8.7,29.92,West,270,7.0,11.0,65,0.00,,,-99.99,WeatherLink 5.7,2013-02-03 17:01:00,
2013-02-03 12:11:00,18.5,8.7,29.92,West,270,7.0,12.0,65,0.00,,,-99.99,WeatherLink 5.7,2013-02-03 17:11:00,
2013-02-03 12:21:00,18.8,9.0,29.91,West,270,6.0,10.0,65,0.00,,,-99.99,WeatherLink 5.7,2013-02-03 17:21:00,
2013-02-03 12:31:00,19.0,9.2,29.91,WSW,247,6.0,13.0,65,0.00,,,-99.99,WeatherLink 5.7,2013-02-03 17:31:00,
2013-02-03 12:41:00,19.4,9.5,29.90,WSW,247,6.0,10.0,65,0.00,,,-99.99,WeatherLink 5.7,2013-02-03 17:41:00,
2013-02-03 12:51:00,20.5,9.9,29.90,SW,225,5.0,9.0,63,0.01,,,-99.99,WeatherLink 5.7,2013-02-03 17:51:00,
2013-02-03 13:01:00,21.2,10.2,29.89,SW,225,5.0,8.0,62,0.01,,,-99.99,WeatherLink 5.7,2013-02-03 18:01:00,
2013-02-03 13:11:00,21.7,10.3,29.89,WSW,247,5.0,9.0,61,0.02,,,-99.99,WeatherLink 5.7,2013-02-03 18:11:00,
2013-02-03 13:21:00,22.1,10.7,29.89,WSW,247,6.0,11.0,61,0.02,,,-99.99,WeatherLink 5.7,2013-02-03 18:21:00,
2013-02-03 13:31:00,22.7,10.5,29.89,WSW,247,7.0,12.0,59,0.02,,,-99.99,WeatherLink 5.7,2013-02-03 18:31:00,
2013-02-03 13:41:00,23.3,10.7,29.89,WSW,247,8.0,14.0,58,0.03,,,-99.99,WeatherLink 5.7,2013-02-03 18:41:00,
2013-02-03 13:51:00,22.9,10.7,29.89,WSW,247,9.0,16.0,59,0.02,,,-99.99,WeatherLink 5.7,2013-02-03 18:51:00,
2013-02-03 14:01:00,22.3,10.9,29.89,WSW,247,10.0,16.0,61,0.02,,,-99.99,WeatherLink 5.7,2013-02-03 19:01:00,
2013-02-03 14:11:00,22.0,10.6,29.88,WSW,247,8.0,15.0,61,0.01,,,-99.99,WeatherLink 5.7,2013-02-03 19:11:00,
2013-02-03 14:21:00,21.9,11.2,29.88,SW,225,9.0,13.0,63,0.01,,,-99.99,WeatherLink 5.7,2013-02-03 19:21:00,
2013-02-03 14:31:00,21.7,11.4,29.87,SW,225,7.0,11.0,64,0.01,,,-99.99,WeatherLink 5.7,2013-02-03 19:31:00,
2013-02-03 14:41:00,21.9,11.6,29.87,SW,225,8.0,13.0,64,0.00,,,-99.99,WeatherLink 5.7,2013-02-03 19:41:00,
2013-02-03 14:51:00,21.9,11.9,29.87,SW,225,10.0,16.0,65,0.00,,,-99.99,WeatherLink 5.7,2013-02-03 19:51:00,
2013-02-03 15:01:00,21.6,12.0,29.88,WSW,247,9.0,13.0,66,0.00,,,-99.99,WeatherLink 5.7,2013-02-03 20:01:00,
2013-02-03 15:11:00,21.6,12.3,29.89,SW,225,9.0,14.0,67,0.00,,,-99.99,WeatherLink 5.7,2013-02-03 20:11:00,
2013-02-03 15:21:00,21.8,12.2,29.89,WSW,247,9.0,15.0,66,0.00,,,-99.99,WeatherLink 5.7,2013-02-03 20:21:00,
2013-02-03 15:31:00,22.0,12.4,29.89,SW,225,9.0,14.0,66,0.00,,,-99.99,WeatherLink 5.7,2013-02-03 20:31:00,
2013-02-03 15:41:00,22.1,12.1,29.89,WSW,247,8.0,15.0,65,0.00,,,-99.99,WeatherLink 5.7,2013-02-03 20:41:00,
2013-02-03 15:51:00,22.3,12.0,29.89,West,270,8.0,17.0,64,0.00,,,-99.99,WeatherLink 5.7,2013-02-03 20:51:00,
2013-02-03 16:01:00,22.5,12.1,29.90,WSW,247,10.0,15.0,64,0.00,,,-99.99,WeatherLink 5.7,2013-02-03 21:01:00,
2013-02-03 16:11:00,22.4,12.4,29.90,WSW,247,9.0,20.0,65,0.00,,,-99.99,WeatherLink 5.7,2013-02-03 21:11:00,
2013-02-03 16:21:00,22.4,11.7,29.90,West,270,10.0,18.0,63,0.00,,,-99.99,WeatherLink 5.7,2013-02-03 21:21:00,
2013-02-03 16:31:00,22.4,11.3,29.90,West,270,11.0,19.0,62,0.00,,,-99.99,WeatherLink 5.7,2013-02-03 21:31:00,
2013-02-03 16:41:00,22.3,11.6,29.90,West,270,11.0,20.0,63,0.00,,,-99.99,WeatherLink 5.7,2013-02-03 21:41:00,
2013-02-03 16:51:00,22.2,11.5,29.90,West,270,11.0,20.0,63,0.00,,,-99.99,WeatherLink 5.7,2013-02-03 21:51:00,
2013-02-03 17:01:00,22.2,11.5,29.91,West,270,11.0,19.0,63,0.00,,,-99.99,WeatherLink 5.7,2013-02-03 22:01:00,
2013-02-03 17:11:00,22.1,11.4,29.91,West,270,13.0,22.0,63,0.00,,,-99.99,WeatherLink 5.7,2013-02-03 22:11:00,
2013-02-03 17:20:00,22.1,11.8,29.91,West,270,11.0,20.0,64,0.00,,,-99.99,WeatherLink 5.7,2013-02-03 22:20:00,
2013-02-03 17:31:00,22.0,11.7,29.92,West,270,11.0,19.0,64,0.00,,,-99.99,WeatherLink 5.7,2013-02-03 22:31:00,
2013-02-03 17:41:00,22.0,11.7,29.92,West,270,11.0,17.0,64,0.00,,,-99.99,WeatherLink 5.7,2013-02-03 22:41:00,
2013-02-03 17:51:00,21.9,12.3,29.92,West,270,12.0,20.0,66,0.00,,,-99.99,WeatherLink 5.7,2013-02-03 22:51:00,
2013-02-03 18:01:00,21.7,13.1,29.93,West,270,12.0,19.0,69,0.00,,,-99.99,WeatherLink 5.7,2013-02-03 23:01:00,
2013-02-03 18:11:00,21.2,13.6,29.93,WNW,292,10.0,19.0,72,0.00,,,-99.99,WeatherLink 5.7,2013-02-03 23:11:00,
2013-02-03 18:21:00,20.4,13.1,29.94,WNW,292,13.0,21.0,73,0.00,,,-99.99,WeatherLink 5.7,2013-02-03 23:21:00,
2013-02-03 18:31:00,19.5,11.3,29.94,WNW,292,13.0,24.0,70,0.00,,,-99.99,WeatherLink 5.7,2013-02-03 23:31:00,
2013-02-03 18:41:00,19.1,10.3,29.95,WNW,292,12.0,22.0,68,0.00,,,-99.99,WeatherLink 5.7,2013-02-03 23:41:00,
2013-02-03 18:51:00,18.9,9.4,29.95,WNW,292,12.0,19.0,66,0.00,,,-99.99,WeatherLink 5.7,2013-02-03 23:51:00,
2013-02-03 19:01:00,18.8,9.0,29.96,WNW,292,10.0,16.0,65,0.00,,,-99.99,WeatherLink 5.7,2013-02-04 00:01:00,
2013-02-03 19:11:00,18.5,9.0,29.97,WNW,292,10.0,15.0,66,0.00,,,-99.99,WeatherLink 5.7,2013-02-04 00:11:00,
2013-02-03 19:21:00,18.7,9.2,29.97,WNW,292,9.0,14.0,66,0.00,,,-99.99,WeatherLink 5.7,2013-02-04 00:21:00,
2013-02-03 19:31:00,18.6,9.5,29.97,WNW,292,9.0,16.0,67,0.00,,,-99.99,WeatherLink 5.7,2013-02-04 00:31:00,
2013-02-03 19:41:00,18.9,9.7,29.98,WNW,292,9.0,17.0,67,0.00,,,-99.99,WeatherLink 5.7,2013-02-04 00:41:00,
2013-02-03 19:51:00,19.1,9.6,29.98,WNW,292,9.0,16.0,66,0.00,,,-99.99,WeatherLink 5.7,2013-02-04 00:51:00,
2013-02-03 20:01:00,19.0,9.2,29.98,WNW,292,12.0,20.0,65,0.00,,,-99.99,WeatherLink 5.7,2013-02-04 01:01:00,
2013-02-03 20:11:00,18.9,8.4,29.99,NW,315,12.0,19.0,63,0.00,,,-99.99,WeatherLink 5.7,2013-02-04 01:11:00,
2013-02-03 20:21:00,18.8,8.3,29.99,NW,315,10.0,17.0,63,0.00,,,-99.99,WeatherLink 5.7,2013-02-04 01:21:00,
2013-02-03 20:31:00,18.5,7.3,30.00,NW,315,12.0,20.0,61,0.00,,,-99.99,WeatherLink 5.7,2013-02-04 01:31:00,
2013-02-03 20:41:00,18.4,7.2,30.00,NW,315,8.0,15.0,61,0.00,,,-99.99,WeatherLink 5.7,2013-02-04 01:41:00,
2013-02-03 20:51:00,18.3,7.1,30.01,NW,315,11.0,21.0,61,0.00,,,-99.99,WeatherLink 5.7,2013-02-04 01:51:00,
2013-02-03 21:01:00,18.3,7.1,30.01,WNW,292,13.0,26.0,61,0.00,,,-99.99,WeatherLink 5.7,2013-02-04 02:01:00,
2013-02-03 21:11:00,18.3,6.7,30.01,NNW,337,8.0,18.0,60,0.00,,,-99.99,WeatherLink 5.7,2013-02-04 02:11:00,
2013-02-03 21:21:00,18.4,7.5,30.02,NW,315,6.0,13.0,62,0.00,,,-99.99,WeatherLink 5.7,2013-02-04 02:21:00,
2013-02-03 21:31:00,18.3,7.4,30.02,NW,315,9.0,18.0,62,0.00,,,-99.99,WeatherLink 5.7,2013-02-04 02:31:00,
2013-02-03 21:41:00,18.2,7.7,30.02,NW,315,7.0,14.0,63,0.00,,,-99.99,WeatherLink 5.7,2013-02-04 02:41:00,
2013-02-03 21:51:00,18.1,7.6,30.02,NW,315,7.0,15.0,63,0.00,,,-99.99,WeatherLink 5.7,2013-02-04 02:51:00,
2013-02-03 22:01:00,18.1,7.6,30.02,NW,315,5.0,11.0,63,0.00,,,-99.99,WeatherLink 5.7,2013-02-04 03:01:00,
2013-02-03 22:11:00,18.0,7.5,30.02,NW,315,5.0,12.0,63,0.00,,,-99.99,WeatherLink 5.7,2013-02-04 03:11:00,
2013-02-03 22:21:00,18.0,7.5,30.03,NW,315,4.0,7.0,63,0.00,,,-99.99,WeatherLink 5.7,2013-02-04 03:21:00,
2013-02-03 22:31:00,18.0,7.9,30.03,WNW,292,3.0,6.0,64,0.00,,,-99.99,WeatherLink 5.7,2013-02-04 03:31:00,
2013-02-03 22:41:00,17.9,7.4,30.03,NW,315,5.0,11.0,63,0.00,,,-99.99,WeatherLink 5.7,2013-02-04 03:41:00,
2013-02-03 22:51:00,17.9,7.4,30.03,NW,315,6.0,9.0,63,0.00,,,-99.99,WeatherLink 5.7,2013-02-04 03:51:00,
2013-02-03 23:01:00,17.9,7.8,30.03,NW,315,5.0,8.0,64,0.00,,,-99.99,WeatherLink 5.7,2013-02-04 04:01:00,
2013-02-03 23:11:00,17.8,7.7,30.03,WNW,292,5.0,10.0,64,0.00,,,-99.99,WeatherLink 5.7,2013-02-04 04:11:00,
2013-02-03 23:21:00,17.8,7.7,30.03,WNW,292,4.0,7.0,64,0.00,,,-99.99,WeatherLink 5.7,2013-02-04 04:21:00,
2013-02-03 23:31:00,17.8,7.7,30.03,WNW,292,3.0,7.0,64,0.00,,,-99.99,WeatherLink 5.7,2013-02-04 04:31:00,
2013-02-03 23:40:00,17.7,7.9,30.03,WNW,292,1.0,4.0,65,0.00,,,-99.99,WeatherLink 5.7,2013-02-04 04:40:00,
2013-02-03 23:51:00,17.7,7.9,30.02,WNW,292,0.0,2.0,65,0.00,,,-99.99,WeatherLink 5.7,2013-02-04 04:51:00,